sensor_id;sensor_type;location;lat;lon;timestamp;P1;durP1;ratioP1;P2;durP2;ratioP2
59263;SDS011;45030;42.720;23.344;2023-11-21T00:00:42;6.28;;;5.05;;
59263;SDS011;45030;42.720;23.344;2023-11-21T00:03:07;4.05;;;3.08;;
59263;SDS011;45030;42.720;23.344;2023-11-21T00:05:32;4.00;;;3.70;;
59263;SDS011;45030;42.720;23.344;2023-11-21T00:07:57;5.10;;;4.70;;
59263;SDS011;45030;42.720;23.344;2023-11-21T00:10:23;6.78;;;6.00;;
59263;SDS011;45030;42.720;23.344;2023-11-21T00:12:48;8.82;;;4.28;;
59263;SDS011;45030;42.720;23.344;2023-11-21T00:15:13;6.85;;;6.45;;
59263;SDS011;45030;42.720;23.344;2023-11-21T00:17:39;10.90;;;5.75;;
59263;SDS011;45030;42.720;23.344;2023-11-21T00:20:05;3.13;;;3.03;;
59263;SDS011;45030;42.720;23.344;2023-11-21T00:22:35;2.30;;;2.20;;
59263;SDS011;45030;42.720;23.344;2023-11-21T00:25:00;5.15;;;4.65;;
59263;SDS011;45030;42.720;23.344;2023-11-21T00:27:25;5.53;;;4.50;;
59263;SDS011;45030;42.720;23.344;2023-11-21T00:29:51;6.10;;;5.53;;
59263;SDS011;45030;42.720;23.344;2023-11-21T00:32:16;8.55;;;7.53;;
59263;SDS011;45030;42.720;23.344;2023-11-21T00:34:41;9.80;;;8.82;;
59263;SDS011;45030;42.720;23.344;2023-11-21T00:37:07;4.93;;;4.53;;
59263;SDS011;45030;42.720;23.344;2023-11-21T00:39:32;6.35;;;5.78;;
59263;SDS011;45030;42.720;23.344;2023-11-21T00:41:58;4.00;;;3.80;;
59263;SDS011;45030;42.720;23.344;2023-11-21T00:44:23;19.55;;;10.07;;
59263;SDS011;45030;42.720;23.344;2023-11-21T00:46:48;7.25;;;6.65;;
59263;SDS011;45030;42.720;23.344;2023-11-21T00:49:13;3.22;;;3.03;;
59263;SDS011;45030;42.720;23.344;2023-11-21T00:51:39;6.18;;;5.28;;
59263;SDS011;45030;42.720;23.344;2023-11-21T00:54:04;5.25;;;4.85;;
59263;SDS011;45030;42.720;23.344;2023-11-21T00:56:29;6.68;;;5.90;;
59263;SDS011;45030;42.720;23.344;2023-11-21T00:58:55;6.03;;;5.55;;
59263;SDS011;45030;42.720;23.344;2023-11-21T01:01:21;6.50;;;5.78;;
59263;SDS011;45030;42.720;23.344;2023-11-21T01:03:50;6.60;;;5.97;;
59263;SDS011;45030;42.720;23.344;2023-11-21T01:06:16;6.28;;;5.78;;
59263;SDS011;45030;42.720;23.344;2023-11-21T01:08:41;4.65;;;4.22;;
59263;SDS011;45030;42.720;23.344;2023-11-21T01:11:13;9.35;;;7.47;;
59263;SDS011;45030;42.720;23.344;2023-11-21T01:13:39;10.82;;;10.05;;
59263;SDS011;45030;42.720;23.344;2023-11-21T01:16:05;17.05;;;12.93;;
59263;SDS011;45030;42.720;23.344;2023-11-21T01:18:31;5.25;;;4.82;;
59263;SDS011;45030;42.720;23.344;2023-11-21T01:20:56;12.85;;;9.05;;
59263;SDS011;45030;42.720;23.344;2023-11-21T01:23:22;7.65;;;7.13;;
59263;SDS011;45030;42.720;23.344;2023-11-21T01:25:47;8.15;;;7.55;;
59263;SDS011;45030;42.720;23.344;2023-11-21T01:28:13;9.88;;;9.20;;
59263;SDS011;45030;42.720;23.344;2023-11-21T01:30:38;10.93;;;9.40;;
59263;SDS011;45030;42.720;23.344;2023-11-21T01:33:04;6.22;;;5.60;;
59263;SDS011;45030;42.720;23.344;2023-11-21T01:35:29;7.55;;;7.10;;
59263;SDS011;45030;42.720;23.344;2023-11-21T01:37:55;4.25;;;3.92;;
59263;SDS011;45030;42.720;23.344;2023-11-21T01:40:20;6.78;;;6.20;;
59263;SDS011;45030;42.720;23.344;2023-11-21T01:42:46;10.20;;;5.53;;
59263;SDS011;45030;42.720;23.344;2023-11-21T01:45:12;6.97;;;5.10;;
59263;SDS011;45030;42.720;23.344;2023-11-21T01:47:38;7.72;;;7.22;;
59263;SDS011;45030;42.720;23.344;2023-11-21T01:50:03;8.63;;;7.88;;
59263;SDS011;45030;42.720;23.344;2023-11-21T01:52:29;5.35;;;4.57;;
59263;SDS011;45030;42.720;23.344;2023-11-21T01:54:55;6.85;;;6.43;;
59263;SDS011;45030;42.720;23.344;2023-11-21T01:57:20;4.93;;;4.63;;
59263;SDS011;45030;42.720;23.344;2023-11-21T01:59:46;9.25;;;6.00;;
59263;SDS011;45030;42.720;23.344;2023-11-21T02:02:12;6.00;;;5.50;;
59263;SDS011;45030;42.720;23.344;2023-11-21T02:04:38;3.45;;;3.25;;
59263;SDS011;45030;42.720;23.344;2023-11-21T02:07:03;6.22;;;5.65;;
59263;SDS011;45030;42.720;23.344;2023-11-21T02:09:31;12.90;;;6.75;;
59263;SDS011;45030;42.720;23.344;2023-11-21T02:12:03;8.07;;;7.20;;
59263;SDS011;45030;42.720;23.344;2023-11-21T02:14:29;6.82;;;4.63;;
59263;SDS011;45030;42.720;23.344;2023-11-21T02:16:55;9.52;;;8.77;;
59263;SDS011;45030;42.720;23.344;2023-11-21T02:19:22;8.10;;;7.50;;
59263;SDS011;45030;42.720;23.344;2023-11-21T02:21:50;5.07;;;4.72;;
59263;SDS011;45030;42.720;23.344;2023-11-21T02:24:18;4.05;;;3.53;;
59263;SDS011;45030;42.720;23.344;2023-11-21T02:26:43;15.25;;;9.13;;
59263;SDS011;45030;42.720;23.344;2023-11-21T02:29:09;4.03;;;3.83;;
59263;SDS011;45030;42.720;23.344;2023-11-21T02:31:37;18.73;;;4.80;;
59263;SDS011;45030;42.720;23.344;2023-11-21T02:34:10;11.95;;;5.63;;
59263;SDS011;45030;42.720;23.344;2023-11-21T02:36:38;6.68;;;3.63;;
59263;SDS011;45030;42.720;23.344;2023-11-21T02:39:03;4.38;;;4.05;;
59263;SDS011;45030;42.720;23.344;2023-11-21T02:41:28;3.60;;;3.33;;
59263;SDS011;45030;42.720;23.344;2023-11-21T02:43:54;5.43;;;4.88;;
59263;SDS011;45030;42.720;23.344;2023-11-21T02:46:19;2.83;;;2.63;;
59263;SDS011;45030;42.720;23.344;2023-11-21T02:48:45;4.43;;;4.22;;
59263;SDS011;45030;42.720;23.344;2023-11-21T02:51:10;4.57;;;4.28;;
59263;SDS011;45030;42.720;23.344;2023-11-21T02:53:35;8.77;;;4.38;;
59263;SDS011;45030;42.720;23.344;2023-11-21T02:56:00;4.97;;;4.60;;
59263;SDS011;45030;42.720;23.344;2023-11-21T02:58:26;3.05;;;1.80;;
59263;SDS011;45030;42.720;23.344;2023-11-21T03:00:51;3.25;;;3.05;;
59263;SDS011;45030;42.720;23.344;2023-11-21T03:03:16;6.05;;;4.55;;
59263;SDS011;45030;42.720;23.344;2023-11-21T03:05:42;4.70;;;4.30;;
59263;SDS011;45030;42.720;23.344;2023-11-21T03:08:07;2.40;;;2.30;;
59263;SDS011;45030;42.720;23.344;2023-11-21T03:10:33;4.20;;;3.90;;
59263;SDS011;45030;42.720;23.344;2023-11-21T03:12:58;5.55;;;5.07;;
59263;SDS011;45030;42.720;23.344;2023-11-21T03:15:23;4.25;;;3.85;;
59263;SDS011;45030;42.720;23.344;2023-11-21T03:17:48;10.20;;;9.48;;
59263;SDS011;45030;42.720;23.344;2023-11-21T03:20:14;3.38;;;3.03;;
59263;SDS011;45030;42.720;23.344;2023-11-21T03:22:41;5.13;;;4.78;;
59263;SDS011;45030;42.720;23.344;2023-11-21T03:25:07;6.90;;;6.28;;
59263;SDS011;45030;42.720;23.344;2023-11-21T03:27:35;7.07;;;6.50;;
59263;SDS011;45030;42.720;23.344;2023-11-21T03:30:00;8.32;;;7.75;;
59263;SDS011;45030;42.720;23.344;2023-11-21T03:32:26;7.30;;;5.78;;
59263;SDS011;45030;42.720;23.344;2023-11-21T03:34:55;12.05;;;10.80;;
59263;SDS011;45030;42.720;23.344;2023-11-21T03:37:21;6.28;;;4.50;;
59263;SDS011;45030;42.720;23.344;2023-11-21T03:39:46;7.80;;;7.25;;
59263;SDS011;45030;42.720;23.344;2023-11-21T03:42:12;10.75;;;9.95;;
59263;SDS011;45030;42.720;23.344;2023-11-21T03:44:37;7.57;;;6.78;;
59263;SDS011;45030;42.720;23.344;2023-11-21T03:47:02;7.18;;;6.68;;
59263;SDS011;45030;42.720;23.344;2023-11-21T03:49:28;5.97;;;5.47;;
59263;SDS011;45030;42.720;23.344;2023-11-21T03:51:54;8.38;;;5.78;;
59263;SDS011;45030;42.720;23.344;2023-11-21T03:54:19;10.00;;;9.38;;
59263;SDS011;45030;42.720;23.344;2023-11-21T03:56:44;19.20;;;7.22;;
59263;SDS011;45030;42.720;23.344;2023-11-21T03:59:10;8.25;;;7.18;;
59263;SDS011;45030;42.720;23.344;2023-11-21T04:01:35;5.22;;;4.82;;
59263;SDS011;45030;42.720;23.344;2023-11-21T04:04:00;4.07;;;3.78;;
59263;SDS011;45030;42.720;23.344;2023-11-21T04:06:25;5.78;;;5.22;;
59263;SDS011;45030;42.720;23.344;2023-11-21T04:08:51;4.53;;;4.13;;
59263;SDS011;45030;42.720;23.344;2023-11-21T04:11:16;4.85;;;4.43;;
59263;SDS011;45030;42.720;23.344;2023-11-21T04:13:41;5.00;;;4.70;;
59263;SDS011;45030;42.720;23.344;2023-11-21T04:16:07;8.30;;;5.15;;
59263;SDS011;45030;42.720;23.344;2023-11-21T04:18:33;10.80;;;5.85;;
59263;SDS011;45030;42.720;23.344;2023-11-21T04:20:58;6.10;;;5.28;;
59263;SDS011;45030;42.720;23.344;2023-11-21T04:23:24;10.73;;;9.68;;
59263;SDS011;45030;42.720;23.344;2023-11-21T04:25:49;7.30;;;5.20;;
59263;SDS011;45030;42.720;23.344;2023-11-21T04:28:14;5.38;;;5.07;;
59263;SDS011;45030;42.720;23.344;2023-11-21T04:30:39;13.05;;;7.03;;
59263;SDS011;45030;42.720;23.344;2023-11-21T04:33:05;7.22;;;6.72;;
59263;SDS011;45030;42.720;23.344;2023-11-21T04:35:32;3.05;;;2.85;;
59263;SDS011;45030;42.720;23.344;2023-11-21T04:37:58;5.72;;;5.22;;
59263;SDS011;45030;42.720;23.344;2023-11-21T04:40:23;4.85;;;4.30;;
59263;SDS011;45030;42.720;23.344;2023-11-21T04:42:48;2.45;;;2.33;;
59263;SDS011;45030;42.720;23.344;2023-11-21T04:45:13;4.25;;;3.88;;
59263;SDS011;45030;42.720;23.344;2023-11-21T04:47:39;10.55;;;9.63;;
59263;SDS011;45030;42.720;23.344;2023-11-21T04:50:04;12.05;;;6.38;;
59263;SDS011;45030;42.720;23.344;2023-11-21T04:52:30;3.03;;;2.85;;
59263;SDS011;45030;42.720;23.344;2023-11-21T04:54:56;2.45;;;2.25;;
59263;SDS011;45030;42.720;23.344;2023-11-21T04:57:23;3.88;;;3.63;;
59263;SDS011;45030;42.720;23.344;2023-11-21T04:59:48;8.13;;;4.40;;
59263;SDS011;45030;42.720;23.344;2023-11-21T05:02:14;5.03;;;4.28;;
59263;SDS011;45030;42.720;23.344;2023-11-21T05:04:39;7.60;;;3.65;;
59263;SDS011;45030;42.720;23.344;2023-11-21T05:07:04;4.22;;;3.70;;
59263;SDS011;45030;42.720;23.344;2023-11-21T05:09:29;4.55;;;4.22;;
59263;SDS011;45030;42.720;23.344;2023-11-21T05:11:57;7.22;;;5.95;;
59263;SDS011;45030;42.720;23.344;2023-11-21T05:14:22;3.80;;;3.60;;
59263;SDS011;45030;42.720;23.344;2023-11-21T05:16:47;2.83;;;2.53;;
59263;SDS011;45030;42.720;23.344;2023-11-21T05:19:13;6.18;;;5.68;;
59263;SDS011;45030;42.720;23.344;2023-11-21T05:21:38;9.93;;;3.75;;
59263;SDS011;45030;42.720;23.344;2023-11-21T05:24:03;11.27;;;6.35;;
59263;SDS011;45030;42.720;23.344;2023-11-21T05:26:30;2.45;;;2.25;;
59263;SDS011;45030;42.720;23.344;2023-11-21T05:28:55;8.75;;;5.20;;
59263;SDS011;45030;42.720;23.344;2023-11-21T05:31:20;11.15;;;4.00;;
59263;SDS011;45030;42.720;23.344;2023-11-21T05:33:46;4.50;;;4.30;;
59263;SDS011;45030;42.720;23.344;2023-11-21T05:36:12;7.10;;;5.50;;
59263;SDS011;45030;42.720;23.344;2023-11-21T05:38:37;1.83;;;1.73;;
59263;SDS011;45030;42.720;23.344;2023-11-21T05:41:02;5.45;;;5.05;;
59263;SDS011;45030;42.720;23.344;2023-11-21T05:43:28;3.78;;;3.58;;
59263;SDS011;45030;42.720;23.344;2023-11-21T05:45:55;4.45;;;4.15;;
59263;SDS011;45030;42.720;23.344;2023-11-21T05:48:21;7.30;;;6.18;;
59263;SDS011;45030;42.720;23.344;2023-11-21T05:50:46;6.38;;;5.97;;
59263;SDS011;45030;42.720;23.344;2023-11-21T05:53:13;10.95;;;10.15;;
59263;SDS011;45030;42.720;23.344;2023-11-21T05:55:40;10.48;;;9.50;;
59263;SDS011;45030;42.720;23.344;2023-11-21T05:58:06;7.22;;;6.78;;
59263;SDS011;45030;42.720;23.344;2023-11-21T06:00:32;9.98;;;5.65;;
59263;SDS011;45030;42.720;23.344;2023-11-21T06:02:58;8.52;;;7.72;;
59263;SDS011;45030;42.720;23.344;2023-11-21T06:05:25;5.53;;;5.22;;
59263;SDS011;45030;42.720;23.344;2023-11-21T06:07:51;14.60;;;6.85;;
59263;SDS011;45030;42.720;23.344;2023-11-21T06:10:17;11.05;;;7.00;;
59263;SDS011;45030;42.720;23.344;2023-11-21T06:12:44;5.43;;;5.07;;
59263;SDS011;45030;42.720;23.344;2023-11-21T06:15:10;6.15;;;5.70;;
59263;SDS011;45030;42.720;23.344;2023-11-21T06:17:38;9.98;;;8.18;;
59263;SDS011;45030;42.720;23.344;2023-11-21T06:20:04;6.53;;;5.97;;
59263;SDS011;45030;42.720;23.344;2023-11-21T06:22:34;5.57;;;4.95;;
59263;SDS011;45030;42.720;23.344;2023-11-21T06:24:59;6.57;;;6.00;;
59263;SDS011;45030;42.720;23.344;2023-11-21T06:27:25;4.13;;;3.83;;
59263;SDS011;45030;42.720;23.344;2023-11-21T06:29:50;4.05;;;3.80;;
59263;SDS011;45030;42.720;23.344;2023-11-21T06:32:15;3.35;;;3.15;;
59263;SDS011;45030;42.720;23.344;2023-11-21T06:34:41;3.50;;;3.30;;
59263;SDS011;45030;42.720;23.344;2023-11-21T06:37:06;6.45;;;5.93;;
59263;SDS011;45030;42.720;23.344;2023-11-21T06:39:31;4.57;;;4.15;;
59263;SDS011;45030;42.720;23.344;2023-11-21T06:41:57;3.25;;;3.05;;
59263;SDS011;45030;42.720;23.344;2023-11-21T06:44:24;10.30;;;5.55;;
59263;SDS011;45030;42.720;23.344;2023-11-21T06:46:49;2.80;;;2.65;;
59263;SDS011;45030;42.720;23.344;2023-11-21T06:49:15;3.88;;;3.67;;
59263;SDS011;45030;42.720;23.344;2023-11-21T06:51:41;1.92;;;1.83;;
59263;SDS011;45030;42.720;23.344;2023-11-21T06:54:07;3.30;;;3.10;;
59263;SDS011;45030;42.720;23.344;2023-11-21T06:56:32;4.25;;;3.95;;
59263;SDS011;45030;42.720;23.344;2023-11-21T06:58:57;3.47;;;3.15;;
59263;SDS011;45030;42.720;23.344;2023-11-21T07:01:23;2.50;;;2.40;;
59263;SDS011;45030;42.720;23.344;2023-11-21T07:03:48;3.58;;;3.38;;
59263;SDS011;45030;42.720;23.344;2023-11-21T07:06:13;4.65;;;4.30;;
59263;SDS011;45030;42.720;23.344;2023-11-21T07:08:39;3.03;;;2.83;;
59263;SDS011;45030;42.720;23.344;2023-11-21T07:11:04;5.13;;;4.70;;
59263;SDS011;45030;42.720;23.344;2023-11-21T07:13:29;6.75;;;6.30;;
59263;SDS011;45030;42.720;23.344;2023-11-21T07:15:55;3.22;;;3.03;;
59263;SDS011;45030;42.720;23.344;2023-11-21T07:18:20;3.85;;;3.50;;
59263;SDS011;45030;42.720;23.344;2023-11-21T07:20:46;3.17;;;2.88;;
59263;SDS011;45030;42.720;23.344;2023-11-21T07:23:11;4.57;;;4.32;;
59263;SDS011;45030;42.720;23.344;2023-11-21T07:25:36;3.25;;;3.00;;
59263;SDS011;45030;42.720;23.344;2023-11-21T07:28:01;2.95;;;2.75;;
59263;SDS011;45030;42.720;23.344;2023-11-21T07:30:27;7.22;;;4.78;;
59263;SDS011;45030;42.720;23.344;2023-11-21T07:32:52;5.28;;;4.88;;
59263;SDS011;45030;42.720;23.344;2023-11-21T07:35:18;5.43;;;4.75;;
59263;SDS011;45030;42.720;23.344;2023-11-21T07:37:43;4.88;;;4.43;;
59263;SDS011;45030;42.720;23.344;2023-11-21T07:40:08;5.78;;;3.85;;
59263;SDS011;45030;42.720;23.344;2023-11-21T07:42:34;6.07;;;4.43;;
59263;SDS011;45030;42.720;23.344;2023-11-21T07:44:59;2.00;;;1.90;;
59263;SDS011;45030;42.720;23.344;2023-11-21T07:47:24;2.60;;;2.38;;
59263;SDS011;45030;42.720;23.344;2023-11-21T07:49:52;3.65;;;3.35;;
59263;SDS011;45030;42.720;23.344;2023-11-21T07:52:17;2.00;;;1.90;;
59263;SDS011;45030;42.720;23.344;2023-11-21T07:54:42;3.15;;;2.95;;
59263;SDS011;45030;42.720;23.344;2023-11-21T07:57:08;3.63;;;2.55;;
59263;SDS011;45030;42.720;23.344;2023-11-21T07:59:33;1.90;;;1.80;;
59263;SDS011;45030;42.720;23.344;2023-11-21T08:01:58;4.75;;;4.03;;
59263;SDS011;45030;42.720;23.344;2023-11-21T08:04:24;4.07;;;3.53;;
59263;SDS011;45030;42.720;23.344;2023-11-21T08:06:49;2.78;;;2.60;;
59263;SDS011;45030;42.720;23.344;2023-11-21T08:09:14;2.17;;;2.08;;
59263;SDS011;45030;42.720;23.344;2023-11-21T08:11:42;7.13;;;2.92;;
59263;SDS011;45030;42.720;23.344;2023-11-21T08:14:07;0.60;;;0.60;;
59263;SDS011;45030;42.720;23.344;2023-11-21T08:16:32;0.68;;;0.68;;
59263;SDS011;45030;42.720;23.344;2023-11-21T08:18:58;0.52;;;0.52;;
59263;SDS011;45030;42.720;23.344;2023-11-21T08:21:23;0.52;;;0.52;;
59263;SDS011;45030;42.720;23.344;2023-11-21T08:23:49;2.45;;;2.25;;
59263;SDS011;45030;42.720;23.344;2023-11-21T08:26:18;0.50;;;0.50;;
59263;SDS011;45030;42.720;23.344;2023-11-21T08:28:44;3.72;;;3.53;;
59263;SDS011;45030;42.720;23.344;2023-11-21T08:31:09;0.50;;;0.50;;
59263;SDS011;45030;42.720;23.344;2023-11-21T08:33:34;1.17;;;1.17;;
59263;SDS011;45030;42.720;23.344;2023-11-21T08:35:59;0.50;;;0.50;;
59263;SDS011;45030;42.720;23.344;2023-11-21T08:38:26;1.05;;;1.05;;
59263;SDS011;45030;42.720;23.344;2023-11-21T08:40:53;0.50;;;0.50;;
59263;SDS011;45030;42.720;23.344;2023-11-21T08:43:19;0.40;;;0.40;;
59263;SDS011;45030;42.720;23.344;2023-11-21T08:45:45;12.07;;;11.02;;
59263;SDS011;45030;42.720;23.344;2023-11-21T08:48:10;0.50;;;0.50;;
59263;SDS011;45030;42.720;23.344;2023-11-21T08:50:36;4.32;;;3.80;;
59263;SDS011;45030;42.720;23.344;2023-11-21T08:53:01;1.60;;;1.50;;
59263;SDS011;45030;42.720;23.344;2023-11-21T08:55:27;0.43;;;0.43;;
59263;SDS011;45030;42.720;23.344;2023-11-21T08:57:53;2.03;;;1.98;;
59263;SDS011;45030;42.720;23.344;2023-11-21T09:00:18;0.95;;;0.95;;
59263;SDS011;45030;42.720;23.344;2023-11-21T09:02:44;6.30;;;5.88;;
59263;SDS011;45030;42.720;23.344;2023-11-21T09:05:10;0.90;;;0.90;;
59263;SDS011;45030;42.720;23.344;2023-11-21T09:07:36;0.50;;;0.50;;
59263;SDS011;45030;42.720;23.344;2023-11-21T09:10:02;0.60;;;0.60;;
59263;SDS011;45030;42.720;23.344;2023-11-21T09:12:28;6.72;;;6.20;;
59263;SDS011;45030;42.720;23.344;2023-11-21T09:14:53;0.50;;;0.50;;
59263;SDS011;45030;42.720;23.344;2023-11-21T09:17:18;0.43;;;0.43;;
59263;SDS011;45030;42.720;23.344;2023-11-21T09:19:44;0.30;;;0.30;;
59263;SDS011;45030;42.720;23.344;2023-11-21T09:22:12;3.42;;;3.33;;
59263;SDS011;45030;42.720;23.344;2023-11-21T09:24:37;0.30;;;0.30;;
59263;SDS011;45030;42.720;23.344;2023-11-21T09:27:02;0.30;;;0.30;;
59263;SDS011;45030;42.720;23.344;2023-11-21T09:29:28;0.88;;;0.88;;
59263;SDS011;45030;42.720;23.344;2023-11-21T09:31:54;0.40;;;0.40;;
59263;SDS011;45030;42.720;23.344;2023-11-21T09:34:20;0.30;;;0.30;;
59263;SDS011;45030;42.720;23.344;2023-11-21T09:36:45;0.38;;;0.38;;
59263;SDS011;45030;42.720;23.344;2023-11-21T09:39:10;0.85;;;0.85;;
59263;SDS011;45030;42.720;23.344;2023-11-21T09:41:57;1.25;;;1.25;;
59263;SDS011;45030;42.720;23.344;2023-11-21T09:45:08;0.40;;;0.40;;
59263;SDS011;45030;42.720;23.344;2023-11-21T09:47:07;0.32;;;0.32;;
59263;SDS011;45030;42.720;23.344;2023-11-21T09:49:35;0.50;;;0.50;;
59263;SDS011;45030;42.720;23.344;2023-11-21T09:52:02;0.30;;;0.30;;
59263;SDS011;45030;42.720;23.344;2023-11-21T09:54:30;0.63;;;0.63;;
59263;SDS011;45030;42.720;23.344;2023-11-21T09:56:57;0.30;;;0.30;;
59263;SDS011;45030;42.720;23.344;2023-11-21T09:59:23;0.65;;;0.65;;
59263;SDS011;45030;42.720;23.344;2023-11-21T10:01:49;2.20;;;1.73;;
59263;SDS011;45030;42.720;23.344;2023-11-21T10:04:15;3.92;;;3.72;;
59263;SDS011;45030;42.720;23.344;2023-11-21T10:06:41;0.32;;;0.32;;
59263;SDS011;45030;42.720;23.344;2023-11-21T10:09:09;0.82;;;0.82;;
59263;SDS011;45030;42.720;23.344;2023-11-21T10:11:38;1.10;;;1.10;;
59263;SDS011;45030;42.720;23.344;2023-11-21T10:14:06;0.40;;;0.40;;
59263;SDS011;45030;42.720;23.344;2023-11-21T10:16:32;0.30;;;0.30;;
59263;SDS011;45030;42.720;23.344;2023-11-21T10:18:58;0.40;;;0.40;;
59263;SDS011;45030;42.720;23.344;2023-11-21T10:21:23;0.40;;;0.40;;
59263;SDS011;45030;42.720;23.344;2023-11-21T10:23:49;0.50;;;0.50;;
59263;SDS011;45030;42.720;23.344;2023-11-21T10:26:15;0.50;;;0.50;;
59263;SDS011;45030;42.720;23.344;2023-11-21T10:28:54;0.30;;;0.30;;
59263;SDS011;45030;42.720;23.344;2023-11-21T10:31:20;0.65;;;0.65;;
59263;SDS011;45030;42.720;23.344;2023-11-21T10:33:45;0.20;;;0.20;;
59263;SDS011;45030;42.720;23.344;2023-11-21T10:36:10;1.40;;;1.40;;
59263;SDS011;45030;42.720;23.344;2023-11-21T10:38:41;2.05;;;1.95;;
59263;SDS011;45030;42.720;23.344;2023-11-21T10:41:09;1.05;;;1.00;;
59263;SDS011;45030;42.720;23.344;2023-11-21T10:43:35;0.40;;;0.40;;
59263;SDS011;45030;42.720;23.344;2023-11-21T10:46:00;4.32;;;4.15;;
59263;SDS011;45030;42.720;23.344;2023-11-21T10:48:26;0.63;;;0.63;;
59263;SDS011;45030;42.720;23.344;2023-11-21T10:50:52;1.15;;;1.15;;
59263;SDS011;45030;42.720;23.344;2023-11-21T10:53:19;0.20;;;0.20;;
59263;SDS011;45030;42.720;23.344;2023-11-21T10:55:46;0.68;;;0.68;;
59263;SDS011;45030;42.720;23.344;2023-11-21T10:58:11;0.20;;;0.20;;
59263;SDS011;45030;42.720;23.344;2023-11-21T11:00:38;12.00;;;4.57;;
59263;SDS011;45030;42.720;23.344;2023-11-21T11:03:05;0.10;;;0.10;;
59263;SDS011;45030;42.720;23.344;2023-11-21T11:05:31;0.45;;;0.45;;
59263;SDS011;45030;42.720;23.344;2023-11-21T11:08:08;0.82;;;0.80;;
59263;SDS011;45030;42.720;23.344;2023-11-21T11:10:33;0.20;;;0.20;;
59263;SDS011;45030;42.720;23.344;2023-11-21T11:12:59;4.15;;;3.75;;
59263;SDS011;45030;42.720;23.344;2023-11-21T11:15:26;1.67;;;0.95;;
59263;SDS011;45030;42.720;23.344;2023-11-21T11:17:52;0.43;;;0.43;;
59263;SDS011;45030;42.720;23.344;2023-11-21T11:20:21;0.57;;;0.57;;
59263;SDS011;45030;42.720;23.344;2023-11-21T11:23:49;1.05;;;1.05;;
59263;SDS011;45030;42.720;23.344;2023-11-21T11:28:38;5.35;;;3.42;;
59263;SDS011;45030;42.720;23.344;2023-11-21T11:31:11;2.25;;;2.15;;
59263;SDS011;45030;42.720;23.344;2023-11-21T11:38:33;2.67;;;1.55;;
59263;SDS011;45030;42.720;23.344;2023-11-21T11:41:01;0.30;;;0.30;;
59263;SDS011;45030;42.720;23.344;2023-11-21T11:43:27;0.45;;;0.45;;
59263;SDS011;45030;42.720;23.344;2023-11-21T11:45:56;0.20;;;0.20;;
59263;SDS011;45030;42.720;23.344;2023-11-21T11:48:23;1.17;;;1.13;;
59263;SDS011;45030;42.720;23.344;2023-11-21T11:51:22;0.30;;;0.30;;
59263;SDS011;45030;42.720;23.344;2023-11-21T11:53:45;0.30;;;0.30;;
59263;SDS011;45030;42.720;23.344;2023-11-21T11:58:53;0.40;;;0.40;;
59263;SDS011;45030;42.720;23.344;2023-11-21T12:01:18;5.15;;;4.75;;
59263;SDS011;45030;42.720;23.344;2023-11-21T12:03:44;0.28;;;0.28;;
59263;SDS011;45030;42.720;23.344;2023-11-21T12:06:09;2.38;;;2.20;;
59263;SDS011;45030;42.720;23.344;2023-11-21T12:08:36;0.60;;;0.60;;
59263;SDS011;45030;42.720;23.344;2023-11-21T12:11:02;0.30;;;0.30;;
59263;SDS011;45030;42.720;23.344;2023-11-21T12:13:27;0.40;;;0.40;;
59263;SDS011;45030;42.720;23.344;2023-11-21T12:15:53;0.95;;;0.95;;
59263;SDS011;45030;42.720;23.344;2023-11-21T12:18:19;2.58;;;2.47;;
59263;SDS011;45030;42.720;23.344;2023-11-21T12:20:45;0.40;;;0.40;;
59263;SDS011;45030;42.720;23.344;2023-11-21T12:23:13;0.50;;;0.50;;
59263;SDS011;45030;42.720;23.344;2023-11-21T12:25:41;0.65;;;0.65;;
59263;SDS011;45030;42.720;23.344;2023-11-21T12:28:07;3.65;;;2.20;;
59263;SDS011;45030;42.720;23.344;2023-11-21T12:30:33;0.82;;;0.82;;
59263;SDS011;45030;42.720;23.344;2023-11-21T12:33:00;0.50;;;0.50;;
59263;SDS011;45030;42.720;23.344;2023-11-21T12:35:27;3.65;;;3.53;;
59263;SDS011;45030;42.720;23.344;2023-11-21T12:37:52;0.50;;;0.50;;
59263;SDS011;45030;42.720;23.344;2023-11-21T12:40:18;0.50;;;0.50;;
59263;SDS011;45030;42.720;23.344;2023-11-21T12:50:25;0.60;;;0.60;;
59263;SDS011;45030;42.720;23.344;2023-11-21T12:52:58;1.45;;;1.35;;
59263;SDS011;45030;42.720;23.344;2023-11-21T12:55:24;0.70;;;0.70;;
59263;SDS011;45030;42.720;23.344;2023-11-21T12:57:55;2.58;;;2.47;;
59263;SDS011;45030;42.720;23.344;2023-11-21T13:00:28;0.80;;;0.80;;
59263;SDS011;45030;42.720;23.344;2023-11-21T13:02:55;0.88;;;0.88;;
59263;SDS011;45030;42.720;23.344;2023-11-21T13:07:54;1.35;;;1.33;;
59263;SDS011;45030;42.720;23.344;2023-11-21T13:10:26;1.88;;;1.30;;
59263;SDS011;45030;42.720;23.344;2023-11-21T13:13:00;3.50;;;3.20;;
59263;SDS011;45030;42.720;23.344;2023-11-21T13:15:28;14.13;;;3.40;;
59263;SDS011;45030;42.720;23.344;2023-11-21T13:17:56;1.65;;;1.55;;
59263;SDS011;45030;42.720;23.344;2023-11-21T13:20:22;3.20;;;2.13;;
59263;SDS011;45030;42.720;23.344;2023-11-21T13:22:49;2.90;;;2.00;;
59263;SDS011;45030;42.720;23.344;2023-11-21T13:25:16;5.85;;;2.42;;
59263;SDS011;45030;42.720;23.344;2023-11-21T13:27:43;11.10;;;2.03;;
59263;SDS011;45030;42.720;23.344;2023-11-21T13:30:09;1.63;;;1.50;;
59263;SDS011;45030;42.720;23.344;2023-11-21T13:32:35;1.98;;;1.73;;
59263;SDS011;45030;42.720;23.344;2023-11-21T13:35:01;15.15;;;5.45;;
59263;SDS011;45030;42.720;23.344;2023-11-21T13:37:26;0.70;;;0.70;;
59263;SDS011;45030;42.720;23.344;2023-11-21T13:39:53;0.50;;;0.50;;
59263;SDS011;45030;42.720;23.344;2023-11-21T13:42:19;0.80;;;0.80;;
59263;SDS011;45030;42.720;23.344;2023-11-21T13:44:47;2.10;;;2.00;;
59263;SDS011;45030;42.720;23.344;2023-11-21T13:47:14;0.60;;;0.60;;
59263;SDS011;45030;42.720;23.344;2023-11-21T13:49:39;0.60;;;0.60;;
59263;SDS011;45030;42.720;23.344;2023-11-21T13:52:06;0.52;;;0.52;;
59263;SDS011;45030;42.720;23.344;2023-11-21T13:54:32;0.50;;;0.50;;
59263;SDS011;45030;42.720;23.344;2023-11-21T13:56:57;0.60;;;0.60;;
59263;SDS011;45030;42.720;23.344;2023-11-21T13:59:24;0.75;;;0.75;;
59263;SDS011;45030;42.720;23.344;2023-11-21T14:01:55;0.95;;;0.95;;
59263;SDS011;45030;42.720;23.344;2023-11-21T14:04:22;0.60;;;0.60;;
59263;SDS011;45030;42.720;23.344;2023-11-21T14:07:20;0.50;;;0.50;;
59263;SDS011;45030;42.720;23.344;2023-11-21T14:10:06;0.60;;;0.60;;
59263;SDS011;45030;42.720;23.344;2023-11-21T14:12:38;0.50;;;0.50;;
59263;SDS011;45030;42.720;23.344;2023-11-21T14:15:06;0.50;;;0.50;;
59263;SDS011;45030;42.720;23.344;2023-11-21T14:17:34;1.20;;;1.20;;
59263;SDS011;45030;42.720;23.344;2023-11-21T14:20:00;0.50;;;0.50;;
59263;SDS011;45030;42.720;23.344;2023-11-21T14:22:30;0.60;;;0.60;;
59263;SDS011;45030;42.720;23.344;2023-11-21T14:24:56;2.28;;;2.20;;
59263;SDS011;45030;42.720;23.344;2023-11-21T14:27:23;0.70;;;0.70;;
59263;SDS011;45030;42.720;23.344;2023-11-21T14:29:50;0.50;;;0.50;;
59263;SDS011;45030;42.720;23.344;2023-11-21T14:32:15;0.60;;;0.60;;
59263;SDS011;45030;42.720;23.344;2023-11-21T14:34:41;9.38;;;8.90;;
59263;SDS011;45030;42.720;23.344;2023-11-21T14:37:10;0.77;;;0.75;;
59263;SDS011;45030;42.720;23.344;2023-11-21T14:39:38;10.18;;;9.45;;
59263;SDS011;45030;42.720;23.344;2023-11-21T14:42:09;0.50;;;0.50;;
59263;SDS011;45030;42.720;23.344;2023-11-21T14:44:34;0.60;;;0.60;;
59263;SDS011;45030;42.720;23.344;2023-11-21T14:47:03;0.60;;;0.60;;
59263;SDS011;45030;42.720;23.344;2023-11-21T14:49:32;0.40;;;0.40;;